sensor_id;sensor_type;location;lat;lon;timestamp;pressure;altitude;pressure_sealevel;temperature
49785;BMP280;35679;38.732;-121.358;2023-12-20T00:01:55;100261.16;;;17.55
49785;BMP280;35679;38.732;-121.358;2023-12-20T00:04:44;100256.66;;;17.56
49785;BMP280;35679;38.732;-121.358;2023-12-20T00:07:33;100256.06;;;17.54
49785;BMP280;35679;38.732;-121.358;2023-12-20T00:10:23;100261.38;;;17.54
49785;BMP280;35679;38.732;-121.358;2023-12-20T00:13:12;100261.63;;;17.52
49785;BMP280;35679;38.732;-121.358;2023-12-20T00:16:01;100256.28;;;17.52
49785;BMP280;35679;38.732;-121.358;2023-12-20T00:18:50;100258.94;;;17.52
49785;BMP280;35679;38.732;-121.358;2023-12-20T00:21:39;100246.66;;;17.51
49785;BMP280;35679;38.732;-121.358;2023-12-20T00:24:28;100238.63;;;17.51
49785;BMP280;35679;38.732;-121.358;2023-12-20T00:27:17;100243.97;;;17.51
49785;BMP280;35679;38.732;-121.358;2023-12-20T00:30:06;100246.06;;;17.49
49785;BMP280;35679;38.732;-121.358;2023-12-20T00:32:56;100245.25;;;17.49
49785;BMP280;35679;38.732;-121.358;2023-12-20T00:35:45;100239.09;;;17.48
49785;BMP280;35679;38.732;-121.358;2023-12-20T00:38:34;100236.66;;;17.47
49785;BMP280;35679;38.732;-121.358;2023-12-20T00:41:23;100245.69;;;17.46
49785;BMP280;35679;38.732;-121.358;2023-12-20T00:44:12;100238.50;;;17.46
49785;BMP280;35679;38.732;-121.358;2023-12-20T00:47:01;100231.53;;;17.45
49785;BMP280;35679;38.732;-121.358;2023-12-20T00:49:51;100238.72;;;17.45
49785;BMP280;35679;38.732;-121.358;2023-12-20T00:52:40;100239.75;;;17.44
49785;BMP280;35679;38.732;-121.358;2023-12-20T00:55:29;100244.06;;;17.45
49785;BMP280;35679;38.732;-121.358;2023-12-20T00:58:18;100245.09;;;17.44
49785;BMP280;35679;38.732;-121.358;2023-12-20T01:01:07;100254.72;;;17.45
49785;BMP280;35679;38.732;-121.358;2023-12-20T01:03:56;100246.94;;;17.43
49785;BMP280;35679;38.732;-121.358;2023-12-20T01:06:45;100253.94;;;17.44
49785;BMP280;35679;38.732;-121.358;2023-12-20T01:09:34;100248.78;;;17.43
49785;BMP280;35679;38.732;-121.358;2023-12-20T01:12:23;100246.94;;;17.43
49785;BMP280;35679;38.732;-121.358;2023-12-20T01:15:12;100262.13;;;17.43
49785;BMP280;35679;38.732;-121.358;2023-12-20T01:18:01;100285.94;;;17.44
49785;BMP280;35679;38.732;-121.358;2023-12-20T01:20:51;100285.09;;;17.44
49785;BMP280;35679;38.732;-121.358;2023-12-20T01:23:40;100286.97;;;17.43
49785;BMP280;35679;38.732;-121.358;2023-12-20T01:26:29;100277.53;;;17.41
49785;BMP280;35679;38.732;-121.358;2023-12-20T01:29:19;100260.72;;;17.40
49785;BMP280;35679;38.732;-121.358;2023-12-20T01:32:08;100271.38;;;17.40
49785;BMP280;35679;38.732;-121.358;2023-12-20T01:34:57;100270.81;;;17.38
49785;BMP280;35679;38.732;-121.358;2023-12-20T01:37:49;100285.16;;;17.37
49785;BMP280;35679;38.732;-121.358;2023-12-20T01:40:38;100296.88;;;17.36
49785;BMP280;35679;38.732;-121.358;2023-12-20T01:43:27;100279.44;;;17.34
49785;BMP280;35679;38.732;-121.358;2023-12-20T01:46:18;100297.31;;;17.33
49785;BMP280;35679;38.732;-121.358;2023-12-20T01:49:08;100302.84;;;17.32
49785;BMP280;35679;38.732;-121.358;2023-12-20T01:51:57;100237.44;;;17.29
49785;BMP280;35679;38.732;-121.358;2023-12-20T01:54:46;100269.66;;;17.28
49785;BMP280;35679;38.732;-121.358;2023-12-20T01:57:36;100285.66;;;17.28
49785;BMP280;35679;38.732;-121.358;2023-12-20T02:00:26;100275.22;;;17.26
49785;BMP280;35679;38.732;-121.358;2023-12-20T02:03:16;100263.91;;;17.24
49785;BMP280;35679;38.732;-121.358;2023-12-20T02:06:06;100263.91;;;17.24
49785;BMP280;35679;38.732;-121.358;2023-12-20T02:08:56;100269.47;;;17.23
49785;BMP280;35679;38.732;-121.358;2023-12-20T02:11:45;100275.03;;;17.21
49785;BMP280;35679;38.732;-121.358;2023-12-20T02:14:34;100278.50;;;17.22
49785;BMP280;35679;38.732;-121.358;2023-12-20T02:17:23;100285.72;;;17.21
49785;BMP280;35679;38.732;-121.358;2023-12-20T02:20:12;100283.28;;;17.20
49785;BMP280;35679;38.732;-121.358;2023-12-20T02:23:01;100286.72;;;17.20
49785;BMP280;35679;38.732;-121.358;2023-12-20T02:25:51;100293.09;;;17.19
49785;BMP280;35679;38.732;-121.358;2023-12-20T02:28:40;100287.75;;;17.19
49785;BMP280;35679;38.732;-121.358;2023-12-20T02:31:29;100295.19;;;17.17
49785;BMP280;35679;38.732;-121.358;2023-12-20T02:34:18;100293.31;;;17.18
49785;BMP280;35679;38.732;-121.358;2023-12-20T02:37:07;100290.88;;;17.16
49785;BMP280;35679;38.732;-121.358;2023-12-20T02:39:56;100287.41;;;17.16
49785;BMP280;35679;38.732;-121.358;2023-12-20T02:42:45;100290.88;;;17.16
49785;BMP280;35679;38.732;-121.358;2023-12-20T02:45:34;100293.53;;;17.16
49785;BMP280;35679;38.732;-121.358;2023-12-20T02:48:23;100296.22;;;17.16
49785;BMP280;35679;38.732;-121.358;2023-12-20T02:51:12;100297.25;;;17.15
49785;BMP280;35679;38.732;-121.358;2023-12-20T02:54:01;100295.41;;;17.16
49785;BMP280;35679;38.732;-121.358;2023-12-20T02:56:50;100298.88;;;17.16
49785;BMP280;35679;38.732;-121.358;2023-12-20T02:59:40;100293.53;;;17.16
49785;BMP280;35679;38.732;-121.358;2023-12-20T03:02:29;100282.09;;;17.16
49785;BMP280;35679;38.732;-121.358;2023-12-20T03:05:18;100285.56;;;17.16
49785;BMP280;35679;38.732;-121.358;2023-12-20T03:08:07;100289.25;;;17.15
49785;BMP280;35679;38.732;-121.358;2023-12-20T03:10:58;100287.41;;;17.16
49785;BMP280;35679;38.732;-121.358;2023-12-20T03:13:47;100298.88;;;17.16
49785;BMP280;35679;38.732;-121.358;2023-12-20T03:16:36;100304.22;;;17.16
49785;BMP280;35679;38.732;-121.358;2023-12-20T03:19:25;100305.25;;;17.15
49785;BMP280;35679;38.732;-121.358;2023-12-20T03:22:14;100307.91;;;17.15
49785;BMP280;35679;38.732;-121.358;2023-12-20T03:25:03;100307.91;;;17.15
49785;BMP280;35679;38.732;-121.358;2023-12-20T03:27:52;100300.94;;;17.14
49785;BMP280;35679;38.732;-121.358;2023-12-20T03:30:42;100300.94;;;17.14
49785;BMP280;35679;38.732;-121.358;2023-12-20T03:33:31;100296.66;;;17.13
49785;BMP280;35679;38.732;-121.358;2023-12-20T03:36:20;100303.03;;;17.12
49785;BMP280;35679;38.732;-121.358;2023-12-20T03:39:09;100292.38;;;17.12
49785;BMP280;35679;38.732;-121.358;2023-12-20T03:41:58;100306.88;;;17.16
49785;BMP280;35679;38.732;-121.358;2023-12-20T03:44:47;100307.91;;;17.15
49785;BMP280;35679;38.732;-121.358;2023-12-20T03:47:36;100300.34;;;17.12
49785;BMP280;35679;38.732;-121.358;2023-12-20T03:50:25;100303.03;;;17.12
49785;BMP280;35679;38.732;-121.358;2023-12-20T03:53:15;100313.91;;;17.11
49785;BMP280;35679;38.732;-121.358;2023-12-20T03:56:04;100312.03;;;17.11
49785;BMP280;35679;38.732;-121.358;2023-12-20T03:58:53;100312.03;;;17.11
49785;BMP280;35679;38.732;-121.358;2023-12-20T04:01:43;100317.38;;;17.11
49785;BMP280;35679;38.732;-121.358;2023-12-20T04:04:33;100310.41;;;17.10
49785;BMP280;35679;38.732;-121.358;2023-12-20T04:07:22;100309.59;;;17.10
49785;BMP280;35679;38.732;-121.358;2023-12-20T04:10:11;100304.28;;;17.10
49785;BMP280;35679;38.732;-121.358;2023-12-20T04:13:00;100306.34;;;17.08
49785;BMP280;35679;38.732;-121.358;2023-12-20T04:15:49;100303.66;;;17.08
49785;BMP280;35679;38.732;-121.358;2023-12-20T04:18:40;100305.53;;;17.08
49785;BMP280;35679;38.732;-121.358;2023-12-20T04:21:29;100305.53;;;17.08
49785;BMP280;35679;38.732;-121.358;2023-12-20T04:24:18;100301.22;;;17.07
49785;BMP280;35679;38.732;-121.358;2023-12-20T04:27:08;100304.69;;;17.07
49785;BMP280;35679;38.732;-121.358;2023-12-20T04:29:57;100303.91;;;17.07
49785;BMP280;35679;38.732;-121.358;2023-12-20T04:32:46;100303.91;;;17.07
49785;BMP280;35679;38.732;-121.358;2023-12-20T04:35:35;100301.22;;;17.07
49785;BMP280;35679;38.732;-121.358;2023-12-20T04:38:24;100304.69;;;17.07
49785;BMP280;35679;38.732;-121.358;2023-12-20T04:41:13;100311.06;;;17.06
49785;BMP280;35679;38.732;-121.358;2023-12-20T04:44:07;100307.59;;;17.06
49785;BMP280;35679;38.732;-121.358;2023-12-20T04:46:56;100295.28;;;17.05
49785;BMP280;35679;38.732;-121.358;2023-12-20T04:49:45;100302.47;;;17.04
49785;BMP280;35679;38.732;-121.358;2023-12-20T04:52:35;100312.13;;;17.05
49785;BMP280;35679;38.732;-121.358;2023-12-20T04:55:24;100301.44;;;17.05
49785;BMP280;35679;38.732;-121.358;2023-12-20T04:58:13;100303.28;;;17.05
49785;BMP280;35679;38.732;-121.358;2023-12-20T05:01:02;100298.78;;;17.05
49785;BMP280;35679;38.732;-121.358;2023-12-20T05:03:52;100311.28;;;17.05
49785;BMP280;35679;38.732;-121.358;2023-12-20T05:06:41;100304.91;;;17.06
49785;BMP280;35679;38.732;-121.358;2023-12-20T05:09:30;100310.47;;;17.04
49785;BMP280;35679;38.732;-121.358;2023-12-20T05:12:19;100309.63;;;17.04
49785;BMP280;35679;38.732;-121.358;2023-12-20T05:15:08;100313.13;;;17.04
49785;BMP280;35679;38.732;-121.358;2023-12-20T05:17:57;100314.16;;;17.03
49785;BMP280;35679;38.732;-121.358;2023-12-20T05:20:47;100317.63;;;17.04
49785;BMP280;35679;38.732;-121.358;2023-12-20T05:23:36;100327.50;;;17.03
49785;BMP280;35679;38.732;-121.358;2023-12-20T05:26:25;100325.84;;;17.02
49785;BMP280;35679;38.732;-121.358;2023-12-20T05:29:14;100326.09;;;17.01
49785;BMP280;35679;38.732;-121.358;2023-12-20T05:32:03;100332.22;;;17.01
49785;BMP280;35679;38.732;-121.358;2023-12-20T05:34:56;100334.69;;;17.03
49785;BMP280;35679;38.732;-121.358;2023-12-20T05:37:45;100337.53;;;17.01
49785;BMP280;35679;38.732;-121.358;2023-12-20T05:40:34;100336.75;;;17.01
49785;BMP280;35679;38.732;-121.358;2023-12-20T05:43:23;100344.75;;;17.01
49785;BMP280;35679;38.732;-121.358;2023-12-20T05:46:12;100348.22;;;17.01
49785;BMP280;35679;38.732;-121.358;2023-12-20T05:49:01;100348.22;;;17.01
49785;BMP280;35679;38.732;-121.358;2023-12-20T05:51:51;100342.06;;;17.01
49785;BMP280;35679;38.732;-121.358;2023-12-20T05:54:40;100347.63;;;16.99
49785;BMP280;35679;38.732;-121.358;2023-12-20T05:57:29;100340.44;;;17.00
49785;BMP280;35679;38.732;-121.358;2023-12-20T06:00:18;100341.28;;;17.00
49785;BMP280;35679;38.732;-121.358;2023-12-20T06:03:07;100340.44;;;17.00
49785;BMP280;35679;38.732;-121.358;2023-12-20T06:05:56;100341.28;;;17.00
49785;BMP280;35679;38.732;-121.358;2023-12-20T06:08:56;100345.75;;;17.00
49785;BMP280;35679;38.732;-121.358;2023-12-20T06:11:45;100342.06;;;17.01
49785;BMP280;35679;38.732;-121.358;2023-12-20T06:14:35;100345.75;;;17.00
49785;BMP280;35679;38.732;-121.358;2023-12-20T06:17:24;100351.09;;;17.00
49785;BMP280;35679;38.732;-121.358;2023-12-20T06:20:13;100341.47;;;16.99
49785;BMP280;35679;38.732;-121.358;2023-12-20T06:23:02;100347.63;;;16.99
49785;BMP280;35679;38.732;-121.358;2023-12-20T06:25:51;100344.97;;;16.99
49785;BMP280;35679;38.732;-121.358;2023-12-20T06:28:40;100340.44;;;17.00
49785;BMP280;35679;38.732;-121.358;2023-12-20T06:31:29;100332.44;;;17.00
49785;BMP280;35679;38.732;-121.358;2023-12-20T06:34:18;100312.97;;;16.99
49785;BMP280;35679;38.732;-121.358;2023-12-20T06:37:10;100321.78;;;17.00
49785;BMP280;35679;38.732;-121.358;2023-12-20T06:39:59;100324.44;;;17.00
49785;BMP280;35679;38.732;-121.358;2023-12-20T06:42:49;100328.75;;;17.01
49785;BMP280;35679;38.732;-121.358;2023-12-20T06:45:48;100316.22;;;17.01
49785;BMP280;35679;38.732;-121.358;2023-12-20T06:48:37;100309.28;;;17.00
49785;BMP280;35679;38.732;-121.358;2023-12-20T06:51:26;100300.47;;;17.00
49785;BMP280;35679;38.732;-121.358;2023-12-20T06:54:15;100286.34;;;16.99
49785;BMP280;35679;38.732;-121.358;2023-12-20T06:57:04;100293.28;;;17.00
49785;BMP280;35679;38.732;-121.358;2023-12-20T06:59:53;100298.63;;;17.00
49785;BMP280;35679;38.732;-121.358;2023-12-20T07:02:43;100291.44;;;17.01
49785;BMP280;35679;38.732;-121.358;2023-12-20T07:05:32;100300.22;;;17.01
49785;BMP280;35679;38.732;-121.358;2023-12-20T07:08:21;100302.31;;;16.99
49785;BMP280;35679;38.732;-121.358;2023-12-20T07:11:11;100303.13;;;17.00
49785;BMP280;35679;38.732;-121.358;2023-12-20T07:14:00;100297.78;;;17.00
49785;BMP280;35679;38.732;-121.358;2023-12-20T07:16:49;100306.81;;;16.99
49785;BMP280;35679;38.732;-121.358;2023-12-20T07:19:39;100309.28;;;17.00
49785;BMP280;35679;38.732;-121.358;2023-12-20T07:22:28;100311.97;;;17.00
49785;BMP280;35679;38.732;-121.358;2023-12-20T07:25:19;100313.78;;;17.00
49785;BMP280;35679;38.732;-121.358;2023-12-20T07:28:08;100308.44;;;17.00
49785;BMP280;35679;38.732;-121.358;2023-12-20T07:30:58;100303.13;;;17.00
49785;BMP280;35679;38.732;-121.358;2023-12-20T07:33:47;100297.78;;;17.00
49785;BMP280;35679;38.732;-121.358;2023-12-20T07:36:37;100302.31;;;16.99
49785;BMP280;35679;38.732;-121.358;2023-12-20T07:39:25;100294.31;;;16.99
49785;BMP280;35679;38.732;-121.358;2023-12-20T07:42:15;100293.50;;;16.99
49785;BMP280;35679;38.732;-121.358;2023-12-20T07:45:04;100282.81;;;16.99
49785;BMP280;35679;38.732;-121.358;2023-12-20T07:47:53;100283.66;;;16.99
49785;BMP280;35679;38.732;-121.358;2023-12-20T07:50:42;100284.47;;;17.00
49785;BMP280;35679;38.732;-121.358;2023-12-20T07:53:31;100287.13;;;17.00
49785;BMP280;35679;38.732;-121.358;2023-12-20T07:56:20;100278.13;;;17.01
49785;BMP280;35679;38.732;-121.358;2023-12-20T07:59:09;100274.63;;;17.00
49785;BMP280;35679;38.732;-121.358;2023-12-20T08:02:08;100276.47;;;17.00
49785;BMP280;35679;38.732;-121.358;2023-12-20T08:04:58;100272.16;;;16.99
49785;BMP280;35679;38.732;-121.358;2023-12-20T08:07:47;100271.38;;;16.98
49785;BMP280;35679;38.732;-121.358;2023-12-20T08:10:37;100273.00;;;16.99
49785;BMP280;35679;38.732;-121.358;2023-12-20T08:13:26;100275.91;;;16.98
49785;BMP280;35679;38.732;-121.358;2023-12-20T08:16:15;100271.59;;;16.97
49785;BMP280;35679;38.732;-121.358;2023-12-20T08:19:06;100262.75;;;16.96
49785;BMP280;35679;38.732;-121.358;2023-12-20T08:21:55;100264.41;;;16.97
49785;BMP280;35679;38.732;-121.358;2023-12-20T08:24:44;100272.63;;;16.96
49785;BMP280;35679;38.732;-121.358;2023-12-20T08:27:33;100269.34;;;16.94
49785;BMP280;35679;38.732;-121.358;2023-12-20T08:30:22;100271.22;;;16.93
49785;BMP280;35679;38.732;-121.358;2023-12-20T08:33:11;100268.78;;;16.92
49785;BMP280;35679;38.732;-121.358;2023-12-20T08:36:01;100256.47;;;16.91
49785;BMP280;35679;38.732;-121.358;2023-12-20T08:38:53;100267.94;;;16.91
49785;BMP280;35679;38.732;-121.358;2023-12-20T08:41:43;100274.31;;;16.90
49785;BMP280;35679;38.732;-121.358;2023-12-20T08:44:32;100275.34;;;16.89
49785;BMP280;35679;38.732;-121.358;2023-12-20T08:47:21;100275.34;;;16.89
49785;BMP280;35679;38.732;-121.358;2023-12-20T08:50:11;100273.72;;;16.88
49785;BMP280;35679;38.732;-121.358;2023-12-20T08:53:00;100281.09;;;16.86
49785;BMP280;35679;38.732;-121.358;2023-12-20T08:55:49;100281.09;;;16.86
49785;BMP280;35679;38.732;-121.358;2023-12-20T08:58:38;100279.66;;;16.90
49785;BMP280;35679;38.732;-121.358;2023-12-20T09:01:28;100281.72;;;16.88
49785;BMP280;35679;38.732;-121.358;2023-12-20T09:04:17;100281.94;;;16.87
49785;BMP280;35679;38.732;-121.358;2023-12-20T09:07:06;100274.97;;;16.86
49785;BMP280;35679;38.732;-121.358;2023-12-20T09:09:56;100272.31;;;16.86
49785;BMP280;35679;38.732;-121.358;2023-12-20T09:12:45;100274.13;;;16.85
49785;BMP280;35679;38.732;-121.358;2023-12-20T09:15:35;100266.34;;;16.84
49785;BMP280;35679;38.732;-121.358;2023-12-20T09:18:24;100270.06;;;16.83
49785;BMP280;35679;38.732;-121.358;2023-12-20T09:21:13;100270.88;;;16.83
49785;BMP280;35679;38.732;-121.358;2023-12-20T09:24:03;100262.06;;;16.83
49785;BMP280;35679;38.732;-121.358;2023-12-20T09:26:52;100253.25;;;16.82
49785;BMP280;35679;38.732;-121.358;2023-12-20T09:29:41;100260.47;;;16.82
49785;BMP280;35679;38.732;-121.358;2023-12-20T09:32:30;100265.56;;;16.83
49785;BMP280;35679;38.732;-121.358;2023-12-20T09:35:19;100273.78;;;16.82
49785;BMP280;35679;38.732;-121.358;2023-12-20T09:38:08;100266.81;;;16.81
49785;BMP280;35679;38.732;-121.358;2023-12-20T09:40:57;100264.16;;;16.81
49785;BMP280;35679;38.732;-121.358;2023-12-20T09:43:47;100265.78;;;16.82
49785;BMP280;35679;38.732;-121.358;2023-12-20T09:46:37;100277.47;;;16.81
49785;BMP280;35679;38.732;-121.358;2023-12-20T09:49:28;100272.38;;;16.79
49785;BMP280;35679;38.732;-121.358;2023-12-20T09:52:18;100276.63;;;16.80
49785;BMP280;35679;38.732;-121.358;2023-12-20T09:55:07;100272.94;;;16.81
49785;BMP280;35679;38.732;-121.358;2023-12-20T09:57:56;100270.28;;;16.81
49785;BMP280;35679;38.732;-121.358;2023-12-20T10:00:46;100272.94;;;16.81
49785;BMP280;35679;38.732;-121.358;2023-12-20T10:03:35;100273.78;;;16.82
49785;BMP280;35679;38.732;-121.358;2023-12-20T10:06:25;100272.94;;;16.81
49785;BMP280;35679;38.732;-121.358;2023-12-20T10:09:14;100273.78;;;16.82
49785;BMP280;35679;38.732;-121.358;2023-12-20T10:12:03;100279.09;;;16.82
49785;BMP280;35679;38.732;-121.358;2023-12-20T10:14:54;100283.59;;;16.81
49785;BMP280;35679;38.732;-121.358;2023-12-20T10:17:43;100284.44;;;16.82
49785;BMP280;35679;38.732;-121.358;2023-12-20T10:20:32;100277.47;;;16.81
49785;BMP280;35679;38.732;-121.358;2023-12-20T10:23:21;100288.13;;;16.81
49785;BMP280;35679;38.732;-121.358;2023-12-20T10:26:18;100284.63;;;16.80
49785;BMP280;35679;38.732;-121.358;2023-12-20T10:29:07;100285.47;;;16.81
49785;BMP280;35679;38.732;-121.358;2023-12-20T10:31:57;100286.25;;;16.81
49785;BMP280;35679;38.732;-121.358;2023-12-20T10:34:46;100286.47;;;16.80
49785;BMP280;35679;38.732;-121.358;2023-12-20T10:37:36;100281.97;;;16.80
49785;BMP280;35679;38.732;-121.358;2023-12-20T10:40:26;100276.84;;;16.79
49785;BMP280;35679;38.732;-121.358;2023-12-20T10:43:18;100267.84;;;16.80
49785;BMP280;35679;38.732;-121.358;2023-12-20T10:46:07;100271.53;;;16.79
49785;BMP280;35679;38.732;-121.358;2023-12-20T10:48:57;100273.38;;;16.78
49785;BMP280;35679;38.732;-121.358;2023-12-20T10:51:46;100273.38;;;16.78
49785;BMP280;35679;38.732;-121.358;2023-12-20T10:54:37;100268.06;;;16.78
49785;BMP280;35679;38.732;-121.358;2023-12-20T10:57:26;100260.06;;;16.78
49785;BMP280;35679;38.732;-121.358;2023-12-20T11:00:19;100263.53;;;16.79
49785;BMP280;35679;38.732;-121.358;2023-12-20T11:03:10;100257.41;;;16.78
49785;BMP280;35679;38.732;-121.358;2023-12-20T11:06:02;100253.91;;;16.78
49785;BMP280;35679;38.732;-121.358;2023-12-20T11:09:03;100258.22;;;16.79
49785;BMP280;35679;38.732;-121.358;2023-12-20T11:12:03;100262.72;;;16.78
49785;BMP280;35679;38.732;-121.358;2023-12-20T11:14:54;100263.53;;;16.79
49785;BMP280;35679;38.732;-121.358;2023-12-20T11:18:12;100263.53;;;16.79
49785;BMP280;35679;38.732;-121.358;2023-12-20T11:21:06;100261.09;;;16.77
49785;BMP280;35679;38.732;-121.358;2023-12-20T11:23:55;100265.63;;;16.77
49785;BMP280;35679;38.732;-121.358;2023-12-20T11:26:46;100268.28;;;16.77
49785;BMP280;35679;38.732;-121.358;2023-12-20T11:29:36;100263.16;;;16.75
49785;BMP280;35679;38.732;-121.358;2023-12-20T11:35:18;100263.16;;;16.75
49785;BMP280;35679;38.732;-121.358;2023-12-20T11:38:09;100255.38;;;16.74
49785;BMP280;35679;38.732;-121.358;2023-12-20T11:40:58;100252.50;;;16.75
49785;BMP280;35679;38.732;-121.358;2023-12-20T11:43:55;100255.16;;;16.75
49785;BMP280;35679;38.732;-121.358;2023-12-20T11:46:44;100254.34;;;16.75
49785;BMP280;35679;38.732;-121.358;2023-12-20T11:49:33;100255.38;;;16.74
49785;BMP280;35679;38.732;-121.358;2023-12-20T11:52:23;100256.22;;;16.74
49785;BMP280;35679;38.732;-121.358;2023-12-20T11:55:12;100257.25;;;16.73
49785;BMP280;35679;38.732;-121.358;2023-12-20T11:58:01;100262.56;;;16.73
49785;BMP280;35679;38.732;-121.358;2023-12-20T12:00:50;100263.38;;;16.74
49785;BMP280;35679;38.732;-121.358;2023-12-20T12:03:40;100264.41;;;16.73
49785;BMP280;35679;38.732;-121.358;2023-12-20T12:06:31;100255.59;;;16.72
49785;BMP280;35679;38.732;-121.358;2023-12-20T12:09:21;100259.06;;;16.73
49785;BMP280;35679;38.732;-121.358;2023-12-20T12:12:10;100259.91;;;16.73
49785;BMP280;35679;38.732;-121.358;2023-12-20T12:15:01;100261.75;;;16.73
49785;BMP280;35679;38.732;-121.358;2023-12-20T12:17:54;100258.50;;;16.71
49785;BMP280;35679;38.732;-121.358;2023-12-20T12:20:44;100264.63;;;16.71
49785;BMP280;35679;38.732;-121.358;2023-12-20T12:23:34;100263.00;;;16.70
49785;BMP280;35679;38.732;-121.358;2023-12-20T12:26:24;100256.84;;;16.70
49785;BMP280;35679;38.732;-121.358;2023-12-20T12:29:13;100256.84;;;16.70
49785;BMP280;35679;38.732;-121.358;2023-12-20T12:32:07;100257.88;;;16.69
49785;BMP280;35679;38.732;-121.358;2023-12-20T12:34:57;100260.53;;;16.69
49785;BMP280;35679;38.732;-121.358;2023-12-20T12:37:46;100263.22;;;16.69
49785;BMP280;35679;38.732;-121.358;2023-12-20T12:40:35;100253.59;;;16.68
49785;BMP280;35679;38.732;-121.358;2023-12-20T12:43:24;100248.25;;;16.68
49785;BMP280;35679;38.732;-121.358;2023-12-20T12:46:14;100249.31;;;16.67
49785;BMP280;35679;38.732;-121.358;2023-12-20T12:49:03;100260.78;;;16.67
49785;BMP280;35679;38.732;-121.358;2023-12-20T12:51:52;100264.47;;;16.66
49785;BMP280;35679;38.732;-121.358;2023-12-20T12:54:43;100265.28;;;16.67
49785;BMP280;35679;38.732;-121.358;2023-12-20T12:57:33;100262.81;;;16.65
49785;BMP280;35679;38.732;-121.358;2023-12-20T13:00:22;100273.47;;;16.65
49785;BMP280;35679;38.732;-121.358;2023-12-20T13:03:12;100269.78;;;16.66
49785;BMP280;35679;38.732;-121.358;2023-12-20T13:06:02;100268.97;;;16.66
49785;BMP280;35679;38.732;-121.358;2023-12-20T13:08:51;100266.53;;;16.64
49785;BMP280;35679;38.732;-121.358;2023-12-20T13:11:40;100270.00;;;16.65
49785;BMP280;35679;38.732;-121.358;2023-12-20T13:14:31;100278.00;;;16.65
49785;BMP280;35679;38.732;-121.358;2023-12-20T13:17:24;100266.53;;;16.64
49785;BMP280;35679;38.732;-121.358;2023-12-20T13:20:15;100265.72;;;16.64
49785;BMP280;35679;38.732;-121.358;2023-12-20T13:23:05;100273.69;;;16.64
49785;BMP280;35679;38.732;-121.358;2023-12-20T13:25:54;100277.19;;;16.64
49785;BMP280;35679;38.732;-121.358;2023-12-20T13:28:43;100278.22;;;16.63
49785;BMP280;35679;38.732;-121.358;2023-12-20T13:31:32;100287.03;;;16.64
49785;BMP280;35679;38.732;-121.358;2023-12-20T13:34:21;100282.72;;;16.63
49785;BMP280;35679;38.732;-121.358;2023-12-20T13:37:10;100277.19;;;16.64
49785;BMP280;35679;38.732;-121.358;2023-12-20T13:39:59;100288.66;;;16.65
49785;BMP280;35679;38.732;-121.358;2023-12-20T13:42:48;100291.31;;;16.65
49785;BMP280;35679;38.732;-121.358;2023-12-20T13:45:37;100289.69;;;16.64
49785;BMP280;35679;38.732;-121.358;2023-12-20T13:48:26;100292.97;;;16.66
49785;BMP280;35679;38.732;-121.358;2023-12-20T13:51:15;100288.66;;;16.65
49785;BMP280;35679;38.732;-121.358;2023-12-20T13:54:04;100292.34;;;16.64
49785;BMP280;35679;38.732;-121.358;2023-12-20T13:56:53;100293.19;;;16.64
49785;BMP280;35679;38.732;-121.358;2023-12-20T13:59:52;100289.47;;;16.65
49785;BMP280;35679;38.732;-121.358;2023-12-20T14:02:41;100280.66;;;16.65
49785;BMP280;35679;38.732;-121.358;2023-12-20T14:05:31;100284.97;;;16.66
49785;BMP280;35679;38.732;-121.358;2023-12-20T14:08:20;100286.78;;;16.65
49785;BMP280;35679;38.732;-121.358;2023-12-20T14:11:09;100288.44;;;16.66
49785;BMP280;35679;38.732;-121.358;2023-12-20T14:13:59;100284.13;;;16.65
49785;BMP280;35679;38.732;-121.358;2023-12-20T14:16:50;100279.88;;;16.64
49785;BMP280;35679;38.732;-121.358;2023-12-20T14:19:39;100284.97;;;16.66
49785;BMP280;35679;38.732;-121.358;2023-12-20T14:22:28;100282.31;;;16.66
49785;BMP280;35679;38.732;-121.358;2023-12-20T14:25:17;100290.28;;;16.66
49785;BMP280;35679;38.732;-121.358;2023-12-20T14:28:07;100286.00;;;16.65
49785;BMP280;35679;38.732;-121.358;2023-12-20T14:30:56;100296.66;;;16.65
49785;BMP280;35679;38.732;-121.358;2023-12-20T14:33:45;100289.47;;;16.65
49785;BMP280;35679;38.732;-121.358;2023-12-20T14:36:34;100298.28;;;16.66
49785;BMP280;35679;38.732;-121.358;2023-12-20T14:39:23;100296.66;;;16.65
49785;BMP280;35679;38.732;-121.358;2023-12-20T14:42:12;100312.63;;;16.65
49785;BMP280;35679;38.732;-121.358;2023-12-20T14:45:02;100310.75;;;16.65
49785;BMP280;35679;38.732;-121.358;2023-12-20T14:47:51;100311.81;;;16.64
49785;BMP280;35679;38.732;-121.358;2023-12-20T14:50:40;100312.63;;;16.65
49785;BMP280;35679;38.732;-121.358;2023-12-20T14:53:29;100312.00;;;16.63
49785;BMP280;35679;38.732;-121.358;2023-12-20T14:56:18;100307.31;;;16.65
49785;BMP280;35679;38.732;-121.358;2023-12-20T14:59:09;100320.63;;;16.65
49785;BMP280;35679;38.732;-121.358;2023-12-20T15:01:58;100306.69;;;16.63
49785;BMP280;35679;38.732;-121.358;2023-12-20T15:04:48;100317.34;;;16.63
49785;BMP280;35679;38.732;-121.358;2023-12-20T15:07:37;100313.88;;;16.62
49785;BMP280;35679;38.732;-121.358;2023-12-20T15:10:26;100327.19;;;16.62
49785;BMP280;35679;38.732;-121.358;2023-12-20T15:13:15;100334.34;;;16.62
49785;BMP280;35679;38.732;-121.358;2023-12-20T15:16:04;100334.34;;;16.62
49785;BMP280;35679;38.732;-121.358;2023-12-20T15:18:53;100333.53;;;16.61
49785;BMP280;35679;38.732;-121.358;2023-12-20T15:21:43;100340.50;;;16.62
49785;BMP280;35679;38.732;-121.358;2023-12-20T15:24:36;100338.06;;;16.61
49785;BMP280;35679;38.732;-121.358;2023-12-20T15:27:26;100341.53;;;16.61